createdAt,value
2023-02-28T00:01:43.419Z,51.63
2023-02-28T00:04:12.097Z,49.70
2023-02-28T00:06:40.647Z,59.17
2023-02-28T00:09:08.958Z,53.22
2023-02-28T00:11:39.523Z,59.58
2023-02-28T00:14:08.135Z,53.22
2023-02-28T00:16:36.705Z,65.15
2023-02-28T00:19:05.472Z,62.72
2023-02-28T00:21:34.827Z,54.30
2023-02-28T00:24:04.593Z,63.17
2023-02-28T00:26:33.836Z,67.88
2023-02-28T00:29:02.714Z,63.00
2023-02-28T00:31:31.062Z,64.38
2023-02-28T00:33:59.713Z,62.47
2023-02-28T00:36:27.981Z,58.70
2023-02-28T00:38:56.638Z,52.00
2023-02-28T00:41:24.889Z,57.03
2023-02-28T00:43:53.839Z,45.83
2023-02-28T00:46:22.550Z,51.65
2023-02-28T00:48:55.738Z,34.55
2023-02-28T00:51:24.529Z,32.47
2023-02-28T00:53:53.002Z,35.47
2023-02-28T00:56:22.167Z,34.40
2023-02-28T00:58:51.287Z,31.83
2023-02-28T01:01:21.115Z,34.28
2023-02-28T01:03:49.342Z,36.10
2023-02-28T01:06:18.194Z,34.30
2023-02-28T01:08:46.617Z,31.85
2023-02-28T01:11:16.376Z,33.80
2023-02-28T01:13:45.436Z,32.15
2023-02-28T01:16:14.638Z,28.98
2023-02-28T01:18:42.934Z,34.88
2023-02-28T01:21:16.294Z,34.25
2023-02-28T01:23:44.784Z,38.25
2023-02-28T01:26:16.136Z,45.38
2023-02-28T01:28:44.570Z,44.25
2023-02-28T01:31:12.983Z,53.40
2023-02-28T01:33:41.288Z,54.38
2023-02-28T01:36:12.700Z,51.72
2023-02-28T01:38:41.273Z,46.80
2023-02-28T01:41:09.605Z,39.60
2023-02-28T01:43:44.337Z,35.25
2023-02-28T01:46:14.915Z,45.53
2023-02-28T01:49:23.642Z,50.53
2023-02-28T01:51:56.816Z,54.35
2023-02-28T01:54:29.327Z,68.78
2023-02-28T01:57:00.902Z,70.88
2023-02-28T01:59:33.834Z,76.00
2023-02-28T02:02:03.208Z,80.03
2023-02-28T02:04:38.107Z,66.50
2023-02-28T02:07:06.220Z,66.82
2023-02-28T02:09:34.630Z,70.97
2023-02-28T02:12:07.866Z,74.72
2023-02-28T02:14:44.101Z,65.55
2023-02-28T02:17:21.310Z,59.83
2023-02-28T02:20:18.452Z,62.58
2023-02-28T02:23:24.508Z,54.35
2023-02-28T02:26:17.081Z,46.47
2023-02-28T02:29:02.451Z,46.63
2023-02-28T02:31:40.742Z,50.28
2023-02-28T02:34:51.616Z,53.60
2023-02-28T02:37:30.676Z,51.95
2023-02-28T02:40:19.342Z,59.47
2023-02-28T02:43:00.172Z,56.92
2023-02-28T02:45:47.824Z,57.63
2023-02-28T02:48:18.652Z,51.45
2023-02-28T02:50:58.635Z,48.08
2023-02-28T02:53:35.686Z,41.72
2023-02-28T02:56:04.256Z,38.78
2023-02-28T02:58:43.964Z,42.67
2023-02-28T03:01:14.381Z,36.58
2023-02-28T03:03:43.429Z,37.92
2023-02-28T03:06:12.264Z,31.58
2023-02-28T03:08:41.458Z,34.15
2023-02-28T03:11:16.719Z,31.00
2023-02-28T03:14:12.904Z,34.47
2023-02-28T03:17:01.578Z,34.40
2023-02-28T03:19:52.288Z,30.58
2023-02-28T03:23:00.243Z,32.63
2023-02-28T03:25:53.072Z,37.15
2023-02-28T03:28:47.441Z,32.90
2023-02-28T03:31:35.097Z,33.22
2023-02-28T03:34:39.500Z,28.55
2023-02-28T03:37:16.988Z,24.25
2023-02-28T03:39:56.110Z,22.58
2023-02-28T03:42:29.296Z,21.67
2023-02-28T03:48:15.236Z,22.95
2023-02-28T03:50:47.017Z,20.95
2023-02-28T03:53:22.080Z,23.25
2023-02-28T03:56:02.284Z,20.17
2023-02-28T03:59:01.534Z,20.98
2023-02-28T04:01:36.718Z,21.35
2023-02-28T04:04:04.662Z,21.77
2023-02-28T04:06:34.304Z,25.27
2023-02-28T04:09:02.586Z,24.80
2023-02-28T04:11:38.705Z,21.50
2023-02-28T04:14:07.362Z,24.67
2023-02-28T04:16:36.215Z,20.42
2023-02-28T04:19:08.240Z,23.40
2023-02-28T04:21:37.686Z,24.42
2023-02-28T04:24:06.721Z,18.67
2023-02-28T04:26:35.727Z,20.52
2023-02-28T04:29:05.084Z,11.93
2023-02-28T04:31:33.506Z,9.15
2023-02-28T04:34:02.729Z,9.35
2023-02-28T04:36:31.578Z,9.65
2023-02-28T04:39:00.038Z,8.63
2023-02-28T04:41:32.203Z,12.38
2023-02-28T04:44:01.573Z,10.55
2023-02-28T04:46:30.146Z,13.93
2023-02-28T04:48:58.983Z,13.85
2023-02-28T04:51:27.718Z,13.85
2023-02-28T04:53:56.753Z,13.38
2023-02-28T04:56:24.840Z,12.73
2023-02-28T04:58:56.272Z,15.85
2023-02-28T05:01:26.994Z,10.65
2023-02-28T05:03:57.455Z,14.85
2023-02-28T05:06:27.405Z,12.55
2023-02-28T05:08:58.819Z,13.75
2023-02-28T05:11:36.577Z,16.20
2023-02-28T05:14:06.210Z,11.77
2023-02-28T05:16:34.952Z,8.25
2023-02-28T05:19:03.870Z,9.20
2023-02-28T05:21:34.333Z,16.48
2023-02-28T05:24:04.532Z,12.18
2023-02-28T05:26:33.228Z,11.52
2023-02-28T05:29:01.817Z,6.75
2023-02-28T05:31:30.363Z,7.95
2023-02-28T05:33:59.255Z,6.15
2023-02-28T05:36:28.044Z,9.13
2023-02-28T05:38:59.170Z,7.60
2023-02-28T05:41:30.621Z,8.95
2023-02-28T05:44:04.166Z,11.10
2023-02-28T05:46:36.411Z,5.55
2023-02-28T05:49:05.224Z,8.77
2023-02-28T05:51:35.687Z,4.88
2023-02-28T05:54:04.329Z,7.10
2023-02-28T05:56:33.300Z,6.72
2023-02-28T05:59:02.476Z,9.45
2023-02-28T06:01:50.118Z,7.55
2023-02-28T06:04:31.176Z,11.75
2023-02-28T06:07:00.664Z,8.15
2023-02-28T06:09:28.738Z,7.40
2023-02-28T06:11:58.878Z,6.72
2023-02-28T06:14:26.848Z,6.88
2023-02-28T06:16:54.726Z,8.23
2023-02-28T06:19:24.219Z,10.90
2023-02-28T06:21:53.712Z,8.38
2023-02-28T06:24:25.080Z,8.15
2023-02-28T06:26:53.137Z,4.05
2023-02-28T06:29:20.925Z,9.10
2023-02-28T06:31:49.507Z,4.82
2023-02-28T06:34:17.816Z,7.80
2023-02-28T06:36:45.877Z,5.97
2023-02-28T06:39:13.941Z,6.78
2023-02-28T06:41:54.282Z,6.43
2023-02-28T06:44:25.756Z,6.80
2023-02-28T06:46:53.851Z,6.97
2023-02-28T06:49:22.056Z,10.07
2023-02-28T06:51:49.993Z,6.20
2023-02-28T06:54:18.013Z,6.15
2023-02-28T06:56:46.193Z,6.63
2023-02-28T06:59:14.107Z,6.53
2023-02-28T07:01:42.375Z,5.70
2023-02-28T07:04:10.574Z,9.43
2023-02-28T07:06:38.389Z,5.25
2023-02-28T07:09:06.665Z,4.70
2023-02-28T07:11:34.708Z,8.50
2023-02-28T07:14:02.562Z,6.15
2023-02-28T07:16:30.416Z,5.03
2023-02-28T07:18:58.829Z,9.55
2023-02-28T07:21:26.617Z,6.82
2023-02-28T07:23:54.656Z,9.07
2023-02-28T07:26:22.836Z,7.93
2023-02-28T07:28:51.046Z,8.73
2023-02-28T07:31:19.559Z,6.57
2023-02-28T07:33:47.950Z,6.20
2023-02-28T07:36:17.299Z,13.88
2023-02-28T07:38:48.352Z,6.47
2023-02-28T07:41:17.811Z,6.90
2023-02-28T07:43:46.116Z,5.22
2023-02-28T07:46:19.288Z,6.93
2023-02-28T07:51:14.711Z,6.72
2023-02-28T07:53:42.875Z,6.75
2023-02-28T07:56:12.404Z,7.30
2023-02-28T07:58:40.361Z,7.32
2023-02-28T08:01:09.909Z,6.85
2023-02-28T08:03:38.032Z,8.27
2023-02-28T08:06:06.949Z,6.63
2023-02-28T08:08:34.955Z,9.25
2023-02-28T08:11:03.871Z,4.95
2023-02-28T08:13:31.720Z,9.85
2023-02-28T08:15:59.946Z,7.28
2023-02-28T08:18:27.714Z,10.50
2023-02-28T08:20:55.643Z,10.88
2023-02-28T08:23:23.442Z,15.27
2023-02-28T08:25:57.765Z,8.75
2023-02-28T08:28:27.461Z,14.60
2023-02-28T08:30:56.017Z,11.02
2023-02-28T08:33:24.572Z,16.23
2023-02-28T08:35:56.703Z,20.73
2023-02-28T08:38:25.065Z,16.02
2023-02-28T08:40:59.878Z,17.67
2023-02-28T08:43:27.999Z,19.63
2023-02-28T08:45:58.250Z,20.45
2023-02-28T08:48:27.859Z,18.67
2023-02-28T08:51:07.088Z,20.75
2023-02-28T08:53:39.149Z,21.40
2023-02-28T08:56:15.889Z,18.73
2023-02-28T08:58:44.106Z,17.55
2023-02-28T09:01:14.075Z,17.85
2023-02-28T09:03:45.042Z,17.05
2023-02-28T09:06:13.178Z,22.38
2023-02-28T09:08:41.420Z,23.20
2023-02-28T09:11:10.004Z,17.80
2023-02-28T09:13:37.963Z,20.52
2023-02-28T09:16:09.228Z,23.00
2023-02-28T09:18:40.510Z,23.08
2023-02-28T09:21:10.256Z,21.27
2023-02-28T09:23:41.160Z,21.75
2023-02-28T09:26:09.500Z,22.00
2023-02-28T09:28:37.524Z,18.58
2023-02-28T09:31:06.198Z,15.73
2023-02-28T09:33:35.616Z,20.13
2023-02-28T09:36:05.521Z,21.70
2023-02-28T09:38:33.735Z,24.90
2023-02-28T09:41:11.697Z,19.83
2023-02-28T09:43:42.266Z,31.65
2023-02-28T09:46:20.827Z,28.20
2023-02-28T09:48:49.923Z,24.38
2023-02-28T09:51:25.365Z,39.22
2023-02-28T09:54:00.063Z,27.42
2023-02-28T09:56:38.103Z,25.20
2023-02-28T09:59:15.223Z,33.97
2023-02-28T10:01:56.255Z,32.15
2023-02-28T10:04:56.571Z,28.45
2023-02-28T10:07:36.956Z,26.05
2023-02-28T10:10:10.165Z,32.03
2023-02-28T10:12:38.303Z,19.27
2023-02-28T10:15:06.387Z,22.48
2023-02-28T10:20:33.055Z,36.65
2023-02-28T10:23:08.956Z,25.33
2023-02-28T10:25:38.036Z,29.80
2023-02-28T10:28:13.684Z,42.38
2023-02-28T10:30:47.218Z,35.25
2023-02-28T10:33:27.438Z,29.90
2023-02-28T10:35:55.259Z,25.83
2023-02-28T10:38:29.340Z,24.40
2023-02-28T10:41:16.330Z,20.08
2023-02-28T10:43:46.343Z,20.58
2023-02-28T10:46:27.313Z,19.88
2023-02-28T10:49:13.181Z,23.73
2023-02-28T10:51:42.235Z,27.95
2023-02-28T10:54:36.843Z,24.23
2023-02-28T10:57:17.691Z,26.67
2023-02-28T10:59:45.920Z,28.40
2023-02-28T11:02:31.119Z,29.40
2023-02-28T11:04:59.329Z,34.50
2023-02-28T11:07:37.310Z,32.00
2023-02-28T11:10:19.071Z,39.92
2023-02-28T11:12:52.828Z,43.05
2023-02-28T11:15:32.767Z,44.13
2023-02-28T11:18:02.864Z,50.30
2023-02-28T11:20:32.939Z,46.03
2023-02-28T11:23:02.377Z,55.15
2023-02-28T11:25:35.338Z,49.20
2023-02-28T11:28:06.987Z,58.60
2023-02-28T11:30:42.302Z,55.30
2023-02-28T11:33:30.605Z,66.80
2023-02-28T11:36:10.506Z,64.65
2023-02-28T11:38:38.788Z,75.13
2023-02-28T11:41:33.617Z,69.70
2023-02-28T11:44:30.407Z,65.00
2023-02-28T11:47:02.537Z,62.33
2023-02-28T11:49:33.451Z,64.85
2023-02-28T11:52:23.519Z,66.18
2023-02-28T11:55:16.364Z,62.58
2023-02-28T11:58:03.141Z,59.60
2023-02-28T12:01:08.160Z,61.60
2023-02-28T12:03:52.540Z,69.25
2023-02-28T12:06:23.503Z,94.85
2023-02-28T12:08:54.772Z,96.88
2023-02-28T12:11:44.522Z,87.20
2023-02-28T12:14:27.219Z,65.35
2023-02-28T12:17:04.633Z,63.20
2023-02-28T12:19:51.331Z,68.05
2023-02-28T12:22:52.485Z,67.82
2023-02-28T12:25:20.099Z,65.15
2023-02-28T12:27:48.882Z,63.45
2023-02-28T12:30:30.458Z,64.38
2023-02-28T12:33:09.431Z,66.57
2023-02-28T12:35:57.274Z,89.25
2023-02-28T12:38:45.769Z,74.10
2023-02-28T12:41:21.835Z,91.38
2023-02-28T12:43:54.771Z,79.68
2023-02-28T12:46:35.852Z,73.00
2023-02-28T12:49:11.248Z,70.40
2023-02-28T12:51:39.034Z,72.47
2023-02-28T12:54:14.065Z,76.75
2023-02-28T12:57:07.641Z,70.10
2023-02-28T12:59:43.348Z,66.95
2023-02-28T13:02:37.331Z,79.80
2023-02-28T13:05:30.351Z,73.57
2023-02-28T13:08:22.982Z,86.40
2023-02-28T13:10:55.747Z,84.45
2023-02-28T13:13:31.161Z,88.07
2023-02-28T13:16:08.165Z,86.30
2023-02-28T13:18:46.616Z,84.80
2023-02-28T13:21:31.496Z,85.30
2023-02-28T13:24:05.112Z,73.65
2023-02-28T13:26:33.255Z,82.43
2023-02-28T13:29:20.344Z,86.78
2023-02-28T13:32:10.149Z,96.57
2023-02-28T13:34:42.758Z,136.60
2023-02-28T13:37:23.003Z,181.68
2023-02-28T13:39:57.989Z,178.68
2023-02-28T13:42:32.231Z,203.40
2023-02-28T13:45:03.179Z,231.50
2023-02-28T13:47:32.302Z,274.83
2023-02-28T13:50:26.240Z,270.55
2023-02-28T13:53:15.664Z,263.85
2023-02-28T13:56:01.718Z,194.35
2023-02-28T13:59:03.675Z,233.57
2023-02-28T14:01:53.629Z,249.50
2023-02-28T14:04:40.179Z,251.65
2023-02-28T14:07:08.617Z,227.27
2023-02-28T14:09:41.159Z,240.50
2023-02-28T14:12:46.202Z,233.80
2023-02-28T14:15:39.540Z,238.00
2023-02-28T14:18:16.223Z,279.77
2023-02-28T14:20:44.314Z,261.52
2023-02-28T14:23:22.581Z,200.52
2023-02-28T14:26:03.924Z,228.63
2023-02-28T14:28:51.223Z,232.13
2023-02-28T14:31:30.067Z,120.15
2023-02-28T14:34:13.584Z,109.32
2023-02-28T14:39:17.991Z,87.38
2023-02-28T14:41:47.176Z,65.32
2023-02-28T14:44:27.309Z,88.75
2023-02-28T14:46:59.511Z,96.60
2023-02-28T14:49:44.216Z,90.68
2023-02-28T14:52:19.060Z,71.57
2023-02-28T14:54:47.528Z,66.13
2023-02-28T14:57:34.579Z,63.63
2023-02-28T15:00:18.007Z,67.93
2023-02-28T15:02:45.998Z,65.32
2023-02-28T15:05:13.874Z,67.03
2023-02-28T15:07:41.807Z,76.15
2023-02-28T15:10:26.724Z,68.78
2023-02-28T15:13:03.777Z,61.30
2023-02-28T15:15:51.588Z,52.50
2023-02-28T15:18:27.138Z,43.05
2023-02-28T15:20:55.379Z,48.10
2023-02-28T15:23:23.301Z,49.25
2023-02-28T15:25:51.735Z,47.55
2023-02-28T15:28:21.058Z,41.30
2023-02-28T15:31:02.995Z,37.90
2023-02-28T15:33:32.887Z,39.67
2023-02-28T15:36:29.280Z,35.60
2023-02-28T15:38:59.600Z,49.00
2023-02-28T15:41:41.526Z,42.35
2023-02-28T15:44:33.253Z,42.10
2023-02-28T15:47:13.741Z,40.38
2023-02-28T15:50:00.634Z,43.88
2023-02-28T15:52:35.424Z,48.30
2023-02-28T15:55:20.075Z,44.63
2023-02-28T15:57:49.739Z,49.03
2023-02-28T16:00:20.676Z,49.38
2023-02-28T16:02:48.900Z,50.17
2023-02-28T16:05:29.488Z,44.17
2023-02-28T16:07:58.728Z,50.85
2023-02-28T16:10:28.226Z,51.50
2023-02-28T16:12:57.410Z,64.18
2023-02-28T16:15:29.969Z,63.92
2023-02-28T16:17:58.274Z,47.17
2023-02-28T16:20:30.817Z,48.03
2023-02-28T16:23:02.656Z,59.60
2023-02-28T16:25:36.678Z,49.90
2023-02-28T16:28:04.676Z,61.55
2023-02-28T16:30:35.412Z,51.35
2023-02-28T16:33:03.726Z,56.42
2023-02-28T16:35:31.728Z,52.40
2023-02-28T16:37:59.880Z,44.17
2023-02-28T16:40:29.844Z,45.15
2023-02-28T16:43:00.488Z,43.28
2023-02-28T16:45:29.512Z,38.13
2023-02-28T16:47:57.442Z,29.88
2023-02-28T16:50:26.993Z,37.58
2023-02-28T16:52:55.764Z,28.85
2023-02-28T16:55:24.542Z,37.08
2023-02-28T16:57:54.778Z,40.17
2023-02-28T17:00:23.201Z,31.02
2023-02-28T17:02:51.376Z,38.63
2023-02-28T17:05:20.145Z,40.15
2023-02-28T17:07:48.233Z,39.72
2023-02-28T17:10:17.779Z,37.10
2023-02-28T17:12:46.120Z,37.40
2023-02-28T17:15:16.190Z,48.40
2023-02-28T17:17:44.256Z,41.50
2023-02-28T17:20:14.552Z,40.08
2023-02-28T17:22:42.720Z,39.00
2023-02-28T17:25:11.611Z,34.40
2023-02-28T17:27:39.810Z,38.85
2023-02-28T17:30:20.617Z,41.10
2023-02-28T17:32:48.807Z,40.25
2023-02-28T17:35:17.353Z,42.10
2023-02-28T17:37:45.098Z,55.53
2023-02-28T17:40:21.342Z,63.10
2023-02-28T17:42:49.933Z,53.58
2023-02-28T17:45:18.148Z,54.03
2023-02-28T17:47:48.555Z,50.90
2023-02-28T17:50:18.978Z,50.85
2023-02-28T17:52:47.753Z,39.10
2023-02-28T17:55:15.919Z,49.03
2023-02-28T17:57:44.391Z,30.38
2023-02-28T18:00:17.313Z,34.58
2023-02-28T18:02:46.021Z,27.08
2023-02-28T18:05:13.768Z,30.52
2023-02-28T18:07:42.103Z,23.73
2023-02-28T18:10:20.677Z,28.65
2023-02-28T18:12:49.686Z,28.27
2023-02-28T18:15:18.876Z,26.70
2023-02-28T18:17:46.792Z,26.67
2023-02-28T18:20:14.742Z,25.85
2023-02-28T18:22:42.983Z,27.65
2023-02-28T18:25:15.072Z,25.42
2023-02-28T18:27:54.563Z,22.13
2023-02-28T18:30:23.209Z,24.42
2023-02-28T18:32:51.047Z,21.75
2023-02-28T18:35:35.287Z,19.60
2023-02-28T18:38:16.803Z,20.83
2023-02-28T18:40:45.907Z,22.77
2023-02-28T18:43:14.064Z,16.88
2023-02-28T18:45:42.404Z,22.67
2023-02-28T18:48:10.864Z,16.48
2023-02-28T18:50:39.252Z,17.88
2023-02-28T18:53:07.422Z,15.95
2023-02-28T18:55:35.649Z,19.42
2023-02-28T18:58:03.717Z,19.08
2023-02-28T19:00:32.257Z,21.58
2023-02-28T19:03:00.457Z,15.05
2023-02-28T19:05:33.569Z,15.63
2023-02-28T19:08:02.863Z,16.80
2023-02-28T19:10:30.518Z,21.90
2023-02-28T19:12:58.343Z,20.90
2023-02-28T19:15:26.586Z,22.88
2023-02-28T19:17:54.404Z,26.55
2023-02-28T19:20:22.207Z,24.52
2023-02-28T19:22:50.099Z,25.30
2023-02-28T19:25:19.264Z,23.75
2023-02-28T19:27:47.346Z,24.50
2023-02-28T19:30:15.717Z,28.08
2023-02-28T19:32:43.607Z,16.33
2023-02-28T19:35:11.375Z,22.67
2023-02-28T19:37:40.349Z,18.38
2023-02-28T19:40:09.598Z,19.67
2023-02-28T19:42:37.865Z,21.48
2023-02-28T19:45:07.350Z,23.58
2023-02-28T19:47:35.558Z,15.15
2023-02-28T19:50:03.422Z,17.15
2023-02-28T19:52:31.555Z,17.73
2023-02-28T19:54:59.305Z,23.80
2023-02-28T19:57:27.805Z,13.20
2023-02-28T19:59:55.722Z,11.18
2023-02-28T20:02:23.762Z,13.70
2023-02-28T20:04:52.304Z,13.55
2023-02-28T20:07:20.691Z,15.27
2023-02-28T20:09:49.010Z,20.13
2023-02-28T20:12:25.518Z,21.48
2023-02-28T20:14:56.247Z,16.52
2023-02-28T20:17:24.654Z,18.23
2023-02-28T20:19:52.471Z,22.83
2023-02-28T20:22:20.138Z,21.02
2023-02-28T20:24:48.655Z,19.13
2023-02-28T20:27:17.780Z,18.77
2023-02-28T20:29:45.803Z,17.95
2023-02-28T20:32:14.317Z,17.83
2023-02-28T20:34:42.801Z,24.48
2023-02-28T20:37:11.146Z,18.88
2023-02-28T20:39:39.193Z,16.38
2023-02-28T20:42:07.694Z,18.30
2023-02-28T20:44:35.596Z,16.88
2023-02-28T20:47:04.546Z,16.90
2023-02-28T20:49:32.163Z,22.92
2023-02-28T20:52:00.429Z,30.95
2023-02-28T20:54:30.889Z,31.00
2023-02-28T20:56:59.138Z,34.22
2023-02-28T20:59:27.291Z,28.90
2023-02-28T21:01:56.681Z,24.15
2023-02-28T21:04:24.815Z,31.05
2023-02-28T21:06:52.921Z,41.08
2023-02-28T21:09:20.782Z,36.08
2023-02-28T21:11:49.031Z,34.38
2023-02-28T21:14:18.319Z,18.23
2023-02-28T21:16:46.471Z,29.60
2023-02-28T21:19:14.662Z,41.08
2023-02-28T21:21:47.152Z,41.13
2023-02-28T21:24:17.363Z,37.42
2023-02-28T21:26:46.271Z,37.13
2023-02-28T21:29:14.817Z,31.45
2023-02-28T21:31:43.096Z,30.08
2023-02-28T21:34:12.008Z,28.35
2023-02-28T21:36:42.397Z,21.20
2023-02-28T21:39:14.321Z,17.05
2023-02-28T21:41:42.547Z,23.00
2023-02-28T21:44:19.046Z,25.17
2023-02-28T21:46:51.125Z,26.88
2023-02-28T21:49:19.268Z,24.85
2023-02-28T21:51:47.521Z,35.63
2023-02-28T21:54:15.368Z,30.13
2023-02-28T21:56:43.932Z,30.98
2023-02-28T21:59:11.697Z,28.80
2023-02-28T22:01:41.639Z,35.42
2023-02-28T22:04:11.129Z,38.97
2023-02-28T22:06:40.681Z,34.90
2023-02-28T22:09:09.642Z,47.55
2023-02-28T22:11:37.727Z,48.75
2023-02-28T22:14:07.205Z,59.47
2023-02-28T22:16:50.163Z,47.05
2023-02-28T22:19:20.917Z,28.27
2023-02-28T22:21:48.966Z,41.45
2023-02-28T22:24:20.630Z,46.67
2023-02-28T22:26:50.296Z,37.65
2023-02-28T22:29:18.527Z,34.30
2023-02-28T22:31:46.474Z,36.05
2023-02-28T22:34:14.206Z,32.53
2023-02-28T22:36:42.793Z,30.23
2023-02-28T22:39:10.736Z,30.73
2023-02-28T22:41:38.993Z,26.58
2023-02-28T22:44:07.688Z,27.02
2023-02-28T22:46:36.359Z,27.63
2023-02-28T22:49:04.808Z,37.50
2023-02-28T22:51:32.538Z,30.40
2023-02-28T22:54:00.693Z,26.17
2023-02-28T22:56:30.021Z,14.07
2023-02-28T22:58:59.647Z,15.10
2023-02-28T23:01:28.893Z,15.50
2023-02-28T23:03:57.246Z,12.73
2023-02-28T23:06:38.569Z,17.95
2023-02-28T23:09:07.441Z,17.48
2023-02-28T23:11:40.511Z,16.50
2023-02-28T23:14:08.769Z,16.63
2023-02-28T23:16:36.563Z,20.13
2023-02-28T23:19:07.482Z,13.65
2023-02-28T23:21:36.414Z,19.13
2023-02-28T23:24:05.425Z,16.52
2023-02-28T23:26:33.958Z,14.75
2023-02-28T23:29:02.018Z,18.45
2023-02-28T23:31:30.018Z,20.95
2023-02-28T23:33:57.837Z,26.98
2023-02-28T23:36:25.689Z,17.13
2023-02-28T23:38:54.918Z,24.33
2023-02-28T23:41:23.473Z,24.38
2023-02-28T23:43:52.529Z,36.72
2023-02-28T23:46:21.136Z,41.22
2023-02-28T23:48:49.262Z,38.15
2023-02-28T23:51:19.702Z,43.42
2023-02-28T23:53:50.757Z,46.08
2023-02-28T23:56:23.849Z,54.38
2023-02-28T23:58:52.094Z,50.45
